Time;durP1;ratioP1;P1;durP2;ratioP2;P2;SDS_P1;SDS_P2;PMS_P1;PMS_P2;Temp;Humidity;BMP_temperature;BMP_pressure;BME280_temperature;BME280_humidity;BME280_pressure;Samples;Min_cycle;Max_cycle;Signal;HPM_P1;HPM_P2
2023/11/09 00:00:31;;;;;;;2.50;2.30;;;3.60;99.90;;;;;;5051727;28;20210;-62
2023/11/09 00:02:57;;;;;;;3.40;2.83;;;3.60;99.90;;;;;;5051934;28;20210;-62
2023/11/09 00:05:24;;;;;;;3.22;2.40;;;3.50;99.90;;;;;;5051402;28;20207;-62
2023/11/09 00:07:51;;;;;;;3.15;2.92;;;3.50;99.90;;;;;;5051690;28;20250;-62
2023/11/09 00:10:18;;;;;;;4.43;2.65;;;3.50;99.90;;;;;;5051280;28;20209;-62
2023/11/09 00:12:48;;;;;;;1.98;1.88;;;3.50;99.90;;;;;;5051266;28;20234;-62
2023/11/09 00:15:15;;;;;;;3.30;2.78;;;3.50;99.90;;;;;;5051506;28;20221;-62
2023/11/09 00:17:43;;;;;;;3.17;1.88;;;3.40;99.90;;;;;;5051336;28;20232;-62
2023/11/09 00:20:11;;;;;;;2.40;2.08;;;3.40;99.90;;;;;;5051399;28;20281;-62
2023/11/09 00:22:39;;;;;;;4.45;2.60;;;3.40;99.90;;;;;;5051466;28;20294;-62
2023/11/09 00:25:06;;;;;;;5.65;2.47;;;3.40;99.90;;;;;;5050626;28;20203;-62
2023/11/09 00:27:33;;;;;;;2.42;2.00;;;3.30;99.90;;;;;;5031364;28;20245;-62
2023/11/09 00:30:00;;;;;;;3.72;2.72;;;3.30;99.90;;;;;;5031517;28;20294;-62
2023/11/09 00:32:27;;;;;;;4.10;2.50;;;3.30;99.90;;;;;;5031368;28;20214;-62
2023/11/09 00:34:55;;;;;;;2.78;2.65;;;3.30;99.90;;;;;;5031397;28;20229;-62
2023/11/09 00:37:23;;;;;;;4.40;4.10;;;3.20;99.90;;;;;;5030622;28;20685;-62
2023/11/09 00:39:50;;;;;;;2.70;2.60;;;3.20;99.90;;;;;;5031181;28;20608;-62
2023/11/09 00:42:16;;;;;;;6.85;3.10;;;3.20;99.90;;;;;;5033216;28;20677;-62
2023/11/09 00:44:43;;;;;;;2.67;2.47;;;3.20;99.90;;;;;;5035508;28;20203;-62
2023/11/09 00:47:10;;;;;;;3.28;3.00;;;3.20;99.90;;;;;;5035148;28;20309;-62
2023/11/09 00:49:37;;;;;;;3.97;2.97;;;3.20;99.90;;;;;;5035347;28;20237;-62
2023/11/09 00:52:05;;;;;;;2.40;2.22;;;3.20;99.90;;;;;;5035321;28;20218;-62
2023/11/09 00:54:32;;;;;;;6.15;2.47;;;3.20;99.90;;;;;;5034893;28;20298;-62
2023/11/09 00:57:00;;;;;;;2.90;2.67;;;3.20;99.90;;;;;;5034784;28;20717;-62
2023/11/09 00:59:27;;;;;;;2.95;2.75;;;3.20;99.90;;;;;;5035232;28;20285;-62
2023/11/09 01:01:53;;;;;;;2.78;2.53;;;3.20;99.90;;;;;;5035152;28;20269;-62
2023/11/09 01:04:20;;;;;;;2.47;2.30;;;3.10;99.90;;;;;;5035000;28;20203;-62
2023/11/09 01:06:47;;;;;;;3.88;3.58;;;3.10;99.90;;;;;;5034536;28;20235;-62
2023/11/09 01:09:17;;;;;;;4.10;2.70;;;3.10;99.90;;;;;;5034952;28;20598;-62
2023/11/09 01:11:45;;;;;;;3.00;2.45;;;3.10;99.90;;;;;;5035031;28;20234;-62
2023/11/09 01:14:11;;;;;;;2.00;1.90;;;3.10;99.90;;;;;;5034739;28;20211;-62
2023/11/09 01:16:38;;;;;;;2.67;2.33;;;3.10;99.90;;;;;;5034757;28;20234;-62
2023/11/09 01:19:05;;;;;;;2.88;2.67;;;3.10;99.90;;;;;;5034710;28;20210;-62
2023/11/09 01:21:34;;;;;;;4.30;3.40;;;3.00;99.90;;;;;;5034481;28;20215;-62
2023/11/09 01:24:01;;;;;;;2.70;2.50;;;3.00;99.90;;;;;;5034820;28;20651;-62
2023/11/09 01:26:29;;;;;;;3.05;2.85;;;3.00;99.90;;;;;;5034190;28;20223;-62
2023/11/09 01:28:56;;;;;;;5.13;2.85;;;3.00;99.90;;;;;;5034789;28;20306;-62
2023/11/09 01:31:23;;;;;;;11.77;4.30;;;2.90;99.90;;;;;;5034636;28;20294;-62
2023/11/09 01:33:50;;;;;;;7.00;3.10;;;2.90;99.90;;;;;;5034442;28;20579;-62
2023/11/09 01:36:17;;;;;;;3.60;3.30;;;3.00;99.90;;;;;;5033865;28;20234;-62
2023/11/09 01:38:43;;;;;;;3.13;2.88;;;3.00;99.90;;;;;;5034313;28;20301;-62
2023/11/09 01:41:10;;;;;;;3.60;3.00;;;3.00;99.90;;;;;;5034235;28;20233;-62
2023/11/09 01:43:39;;;;;;;2.90;2.70;;;3.00;99.90;;;;;;5033355;28;20207;-62
2023/11/09 01:46:07;;;;;;;6.00;3.70;;;3.00;99.90;;;;;;5033350;28;20207;-62
2023/11/09 01:48:35;;;;;;;3.00;2.70;;;3.00;99.90;;;;;;5033915;28;20210;-62
2023/11/09 01:51:03;;;;;;;4.60;3.70;;;3.00;99.90;;;;;;5034164;28;20218;-62
2023/11/09 01:53:30;;;;;;;11.45;3.28;;;3.10;99.90;;;;;;5033666;28;20207;-62
2023/11/09 01:55:58;;;;;;;2.92;2.70;;;3.10;99.90;;;;;;5033518;28;20752;-62
2023/11/09 01:58:26;;;;;;;3.28;3.08;;;3.10;99.90;;;;;;5033863;28;20203;-62
2023/11/09 02:00:57;;;;;;;4.75;3.70;;;3.10;99.90;;;;;;5033911;28;20207;-62
2023/11/09 02:03:25;;;;;;;4.10;3.80;;;3.10;99.90;;;;;;5034023;28;20245;-62
2023/11/09 02:05:52;;;;;;;2.75;2.55;;;3.20;99.90;;;;;;5033765;28;20209;-62
2023/11/09 02:08:19;;;;;;;4.05;3.00;;;3.20;99.90;;;;;;5033717;28;20254;-62
2023/11/09 02:10:46;;;;;;;4.20;2.85;;;3.30;99.90;;;;;;5033860;28;20207;-62
2023/11/09 02:13:13;;;;;;;4.05;2.90;;;3.30;99.90;;;;;;5033550;28;20214;-62
2023/11/09 02:15:40;;;;;;;3.75;3.45;;;3.30;99.90;;;;;;5033429;28;20654;-62
2023/11/09 02:18:08;;;;;;;3.10;2.90;;;3.40;99.90;;;;;;5033208;28;20709;-62
2023/11/09 02:20:36;;;;;;;3.58;2.88;;;3.40;99.90;;;;;;5033864;28;20211;-62
2023/11/09 02:23:04;;;;;;;3.05;2.85;;;3.50;99.90;;;;;;5033703;28;20207;-62
2023/11/09 02:25:33;;;;;;;2.97;2.70;;;3.50;99.90;;;;;;5033604;28;20210;-62
2023/11/09 02:28:00;;;;;;;2.80;2.60;;;3.60;99.90;;;;;;5033120;28;20227;-62
2023/11/09 02:30:27;;;;;;;3.10;2.80;;;3.60;99.90;;;;;;5033668;28;20689;-62
2023/11/09 02:32:54;;;;;;;2.55;2.45;;;3.70;99.90;;;;;;5033644;28;20207;-62
2023/11/09 02:35:21;;;;;;;3.03;2.80;;;3.80;99.90;;;;;;5033321;28;20674;-62
2023/11/09 02:37:48;;;;;;;5.00;3.70;;;3.80;99.90;;;;;;5032973;28;20322;-62
2023/11/09 02:40:15;;;;;;;3.67;3.38;;;3.80;99.90;;;;;;5033498;28;20696;-62
2023/11/09 02:42:43;;;;;;;5.38;3.20;;;3.90;99.90;;;;;;5033867;28;20289;-62
2023/11/09 02:45:10;;;;;;;3.45;3.15;;;3.80;99.90;;;;;;5049632;28;20209;-62
2023/11/09 02:47:37;;;;;;;7.07;4.10;;;3.90;99.90;;;;;;5052797;28;20297;-63
2023/11/09 02:50:04;;;;;;;3.60;3.30;;;3.90;99.90;;;;;;5053026;28;20209;-62
2023/11/09 02:52:31;;;;;;;4.00;3.70;;;3.90;99.90;;;;;;5053160;28;20684;-62
2023/11/09 02:54:59;;;;;;;3.45;3.25;;;3.90;99.90;;;;;;5053128;28;20217;-62
2023/11/09 02:57:27;;;;;;;3.17;2.95;;;4.00;99.90;;;;;;5052569;28;20234;-62
2023/11/09 02:59:55;;;;;;;3.67;3.28;;;4.10;99.90;;;;;;5053409;28;20211;-62
2023/11/09 03:02:22;;;;;;;3.10;2.90;;;4.10;99.90;;;;;;5053234;28;20617;-62
2023/11/09 03:04:49;;;;;;;4.30;4.00;;;4.10;99.90;;;;;;5052280;28;20202;-62
2023/11/09 03:07:16;;;;;;;3.83;3.53;;;4.20;99.90;;;;;;5052755;28;20597;-62
2023/11/09 03:09:44;;;;;;;3.97;3.60;;;4.30;99.90;;;;;;5052856;28;20301;-62
2023/11/09 03:12:11;;;;;;;3.47;3.17;;;4.30;99.90;;;;;;5053197;28;20218;-62
2023/11/09 03:14:39;;;;;;;4.07;3.78;;;4.40;99.90;;;;;;5052718;28;20287;-62
2023/11/09 03:17:09;;;;;;;3.38;3.17;;;4.40;99.90;;;;;;5052569;28;20230;-62
2023/11/09 03:19:36;;;;;;;3.67;2.50;;;4.40;99.90;;;;;;5052674;28;20214;-62
2023/11/09 03:22:03;;;;;;;3.05;2.65;;;4.50;99.90;;;;;;5052770;28;20297;-62
2023/11/09 03:24:33;;;;;;;3.10;2.78;;;4.50;99.90;;;;;;5052691;28;20222;-62
2023/11/09 03:27:00;;;;;;;3.85;3.60;;;4.50;99.90;;;;;;5052445;28;20222;-62
2023/11/09 03:29:26;;;;;;;3.10;2.90;;;4.60;99.90;;;;;;5052697;28;20297;-62
2023/11/09 03:31:53;;;;;;;2.88;2.67;;;4.60;99.90;;;;;;5052779;28;20293;-62
2023/11/09 03:34:22;;;;;;;3.33;3.03;;;4.70;99.90;;;;;;5052614;28;20301;-63
2023/11/09 03:36:48;;;;;;;3.35;3.03;;;4.70;99.90;;;;;;5051759;28;20230;-62
2023/11/09 03:39:15;;;;;;;3.95;3.55;;;4.70;99.90;;;;;;5053128;28;20218;-62
2023/11/09 03:41:46;;;;;;;3.13;2.88;;;4.80;99.90;;;;;;5052627;28;20206;-62
2023/11/09 03:44:12;;;;;;;3.47;3.05;;;4.80;99.90;;;;;;5052346;28;20222;-62
2023/11/09 03:46:39;;;;;;;3.65;3.35;;;4.90;99.90;;;;;;5051447;28;20730;-63
2023/11/09 03:49:08;;;;;;;2.88;2.40;;;4.90;99.90;;;;;;5051852;28;20297;-62
2023/11/09 03:51:36;;;;;;;3.67;3.38;;;4.90;99.90;;;;;;5052143;28;20211;-62
2023/11/09 03:54:04;;;;;;;3.80;3.42;;;4.90;99.90;;;;;;5052242;28;20214;-62
2023/11/09 03:56:30;;;;;;;2.85;2.65;;;5.00;99.90;;;;;;5051888;28;20233;-63
2023/11/09 03:58:57;;;;;;;3.10;2.80;;;5.00;99.90;;;;;;5052080;28;20722;-63
2023/11/09 04:01:24;;;;;;;3.70;3.40;;;5.00;99.90;;;;;;5052095;28;20206;-62
2023/11/09 04:03:51;;;;;;;4.13;2.47;;;5.00;99.90;;;;;;5052048;28;20206;-63
2023/11/09 04:06:18;;;;;;;3.65;3.35;;;5.00;99.90;;;;;;5051815;28;20230;-63
2023/11/09 04:08:47;;;;;;;5.45;3.65;;;5.00;99.90;;;;;;5052121;28;20640;-62
2023/11/09 04:11:14;;;;;;;6.35;3.00;;;5.10;99.90;;;;;;5050168;28;20206;-62
2023/11/09 04:13:41;;;;;;;4.00;2.55;;;5.00;99.90;;;;;;5052019;28;20206;-62
2023/11/09 04:16:09;;;;;;;4.05;3.28;;;5.00;99.90;;;;;;5051345;28;20209;-62
2023/11/09 04:18:37;;;;;;;2.90;2.70;;;5.00;99.90;;;;;;5051438;28;20237;-62
2023/11/09 04:21:04;;;;;;;3.85;2.85;;;5.00;99.90;;;;;;5051918;28;20239;-62
2023/11/09 04:23:31;;;;;;;4.28;2.65;;;5.00;99.90;;;;;;5052233;28;20217;-63
2023/11/09 04:25:59;;;;;;;5.28;2.70;;;5.00;99.90;;;;;;5051183;28;20728;-62
2023/11/09 04:28:32;;;;;;;4.95;2.15;;;5.00;99.90;;;;;;5051665;28;20655;-62
2023/11/09 04:31:00;;;;;;;2.83;2.63;;;4.90;99.90;;;;;;5051661;28;20260;-62
2023/11/09 04:33:27;;;;;;;3.88;2.97;;;4.90;99.90;;;;;;5051529;28;20209;-62
2023/11/09 04:35:55;;;;;;;3.92;3.50;;;4.90;99.90;;;;;;5051296;28;20597;-63
2023/11/09 04:38:23;;;;;;;3.10;2.90;;;4.90;99.90;;;;;;5051756;28;20230;-62
2023/11/09 04:40:51;;;;;;;4.13;3.72;;;4.80;99.90;;;;;;5051868;28;20636;-62
2023/11/09 04:43:19;;;;;;;3.03;2.83;;;4.70;99.90;;;;;;5051984;28;20285;-62
2023/11/09 04:45:47;;;;;;;5.63;3.60;;;4.70;99.90;;;;;;5051323;28;20207;-62
2023/11/09 04:48:20;;;;;;;2.75;2.28;;;4.70;99.90;;;;;;5051404;28;20221;-62
2023/11/09 04:50:52;;;;;;;3.70;3.40;;;4.60;99.90;;;;;;5051402;28;20206;-63
2023/11/09 04:53:30;;;;;;;3.67;3.38;;;4.60;99.90;;;;;;5070882;22;20248;-64
2023/11/09 04:56:04;;;;;;;5.60;3.22;;;4.50;99.90;;;;;;5050037;28;20597;-64
2023/11/09 04:58:47;;;;;;;2.50;2.40;;;4.50;99.90;;;;;;5050920;28;20237;-64
2023/11/09 05:06:52;;;;;;;2.92;2.70;;;4.30;99.90;;;;;;5050557;28;20198;-64
2023/11/09 05:09:19;;;;;;;2.90;2.67;;;4.30;99.90;;;;;;5050763;28;20216;-64
2023/11/09 05:11:47;;;;;;;1.92;1.83;;;4.20;99.90;;;;;;5050643;28;20202;-64
2023/11/09 05:14:15;;;;;;;3.17;2.70;;;4.30;99.90;;;;;;5050640;28;20234;-64
2023/11/09 05:16:42;;;;;;;3.05;2.83;;;4.20;99.90;;;;;;5030491;28;20657;-65
2023/11/09 05:19:09;;;;;;;2.78;2.58;;;4.20;99.90;;;;;;5030561;28;20227;-64
2023/11/09 05:21:37;;;;;;;2.45;2.35;;;4.20;99.90;;;;;;5030773;28;20298;-64
2023/11/09 05:24:04;;;;;;;3.10;2.85;;;4.20;99.90;;;;;;5030472;28;20363;-64
2023/11/09 05:26:34;;;;;;;3.72;2.80;;;4.20;99.90;;;;;;5030191;28;20370;-64
2023/11/09 05:29:02;;;;;;;5.18;3.05;;;4.20;99.90;;;;;;5033856;28;20199;-64
2023/11/09 05:31:34;;;;;;;2.72;2.38;;;4.20;99.90;;;;;;5034332;28;20260;-64
2023/11/09 05:34:01;;;;;;;3.20;3.00;;;4.20;99.90;;;;;;5045709;28;20230;-64
2023/11/09 05:36:28;;;;;;;4.18;3.22;;;4.20;99.90;;;;;;5053837;28;20209;-64
2023/11/09 05:38:55;;;;;;;2.63;2.53;;;4.20;99.90;;;;;;5053939;28;20226;-64
2023/11/09 05:41:22;;;;;;;2.40;2.20;;;4.10;99.90;;;;;;5054166;28;20207;-64
2023/11/09 05:43:49;;;;;;;2.55;2.20;;;4.10;99.90;;;;;;5053992;28;20277;-64
2023/11/09 05:46:16;;;;;;;2.90;2.70;;;4.10;99.90;;;;;;5053795;28;20297;-64
2023/11/09 05:48:44;;;;;;;3.08;2.65;;;4.00;99.90;;;;;;5054130;28;20206;-64
2023/11/09 05:51:11;;;;;;;5.80;3.30;;;4.00;99.90;;;;;;5053898;28;20209;-64
2023/11/09 05:53:37;;;;;;;3.20;2.95;;;3.90;99.90;;;;;;5053699;28;20325;-64
2023/11/09 05:56:05;;;;;;;4.85;3.63;;;3.90;99.90;;;;;;5053794;28;20213;-64
2023/11/09 05:58:31;;;;;;;3.25;2.95;;;3.90;99.90;;;;;;5053601;28;20317;-64
2023/11/09 06:00:58;;;;;;;3.60;2.53;;;3.80;99.90;;;;;;5053533;28;20203;-64
2023/11/09 06:03:25;;;;;;;4.05;2.88;;;3.80;99.90;;;;;;5053670;28;20647;-64
2023/11/09 06:05:54;;;;;;;3.40;3.10;;;3.80;99.90;;;;;;5053068;28;20252;-64
2023/11/09 06:08:20;;;;;;;3.90;3.50;;;3.80;99.90;;;;;;5053412;28;20720;-64
2023/11/09 06:10:49;;;;;;;3.85;3.55;;;3.70;99.90;;;;;;5053375;28;20297;-64
2023/11/09 06:13:16;;;;;;;3.47;3.25;;;3.70;99.90;;;;;;5053017;28;20234;-64
2023/11/09 06:15:42;;;;;;;4.95;3.17;;;3.70;99.90;;;;;;5053092;28;20210;-64
2023/11/09 06:18:09;;;;;;;3.83;3.53;;;3.70;99.90;;;;;;5053166;28;20313;-64
2023/11/09 06:20:37;;;;;;;3.55;3.25;;;3.70;99.90;;;;;;5053141;28;20457;-64
2023/11/09 06:23:06;;;;;;;3.97;3.67;;;3.70;99.90;;;;;;5052997;28;20321;-64
2023/11/09 06:25:32;;;;;;;3.40;3.10;;;3.60;99.90;;;;;;5052986;28;20210;-64
2023/11/09 06:27:59;;;;;;;5.50;4.65;;;3.60;99.90;;;;;;5053161;28;20202;-64
2023/11/09 06:30:27;;;;;;;3.97;3.25;;;3.60;99.90;;;;;;5043763;28;20700;-64
2023/11/09 06:32:54;;;;;;;3.92;3.25;;;3.60;99.90;;;;;;5032663;28;20673;-64
2023/11/09 06:35:21;;;;;;;4.20;3.50;;;3.60;99.90;;;;;;5033082;28;20261;-64
2023/11/09 06:37:50;;;;;;;16.23;5.72;;;3.60;99.90;;;;;;5032730;28;20222;-64
2023/11/09 06:40:18;;;;;;;11.90;5.43;;;3.60;99.90;;;;;;5031678;28;20210;-64
2023/11/09 06:42:47;;;;;;;5.68;3.80;;;3.60;99.90;;;;;;5032947;28;20780;-64
2023/11/09 06:45:14;;;;;;;6.22;3.92;;;3.60;99.90;;;;;;5032439;28;20219;-64
2023/11/09 06:47:41;;;;;;;3.58;3.28;;;3.60;99.90;;;;;;5032834;28;20213;-64
2023/11/09 06:50:11;;;;;;;3.58;3.25;;;3.60;99.90;;;;;;5032967;28;20226;-64
2023/11/09 06:52:39;;;;;;;4.05;3.20;;;3.70;99.90;;;;;;5032560;28;20294;-64
2023/11/09 06:55:07;;;;;;;3.20;3.00;;;3.70;99.90;;;;;;5032451;28;20214;-64
2023/11/09 06:57:36;;;;;;;4.55;4.28;;;3.70;99.90;;;;;;5032334;28;20681;-64
2023/11/09 07:00:05;;;;;;;5.15;3.60;;;3.70;99.90;;;;;;5032054;28;20210;-64
2023/11/09 07:02:32;;;;;;;4.47;4.05;;;3.70;99.90;;;;;;5032686;28;20675;-64
2023/11/09 07:04:59;;;;;;;6.85;4.93;;;3.80;99.90;;;;;;5032235;28;20233;-64
2023/11/09 07:07:27;;;;;;;7.72;5.65;;;3.80;99.90;;;;;;5032013;28;20293;-64
2023/11/09 07:09:54;;;;;;;4.78;4.47;;;3.80;99.90;;;;;;5032192;28;20202;-64
2023/11/09 07:12:20;;;;;;;5.03;4.55;;;3.80;99.90;;;;;;5032048;28;20297;-64
2023/11/09 07:14:49;;;;;;;5.88;5.38;;;3.80;99.90;;;;;;5031912;28;20231;-65
2023/11/09 07:17:15;;;;;;;5.43;5.03;;;3.90;99.90;;;;;;5031817;28;20250;-64
2023/11/09 07:19:43;;;;;;;5.60;5.15;;;3.90;99.90;;;;;;5032199;28;20252;-64
2023/11/09 07:22:10;;;;;;;6.95;6.25;;;4.00;99.90;;;;;;5032177;28;20207;-64
2023/11/09 07:24:39;;;;;;;3.38;3.13;;;4.00;99.90;;;;;;5031638;28;20241;-64
2023/11/09 07:27:09;;;;;;;6.53;5.07;;;4.10;99.90;;;;;;5031536;28;20218;-65
2023/11/09 07:29:36;;;;;;;6.00;5.40;;;4.10;99.90;;;;;;5032033;28;20209;-64
2023/11/09 07:32:05;;;;;;;8.93;4.82;;;4.20;99.90;;;;;;5031931;28;20209;-64
2023/11/09 07:34:31;;;;;;;7.53;6.20;;;4.20;99.90;;;;;;5031789;28;20317;-64
2023/11/09 07:37:01;;;;;;;9.10;8.20;;;4.30;99.90;;;;;;5031768;28;20207;-64
2023/11/09 07:39:28;;;;;;;11.23;9.18;;;4.40;99.90;;;;;;5031670;28;20322;-64
2023/11/09 07:41:55;;;;;;;13.02;10.43;;;4.40;99.90;;;;;;5031815;28;20211;-64
2023/11/09 07:44:22;;;;;;;10.85;9.45;;;4.50;99.90;;;;;;5031395;28;20234;-64
2023/11/09 07:46:50;;;;;;;11.02;9.38;;;4.60;99.90;;;;;;5030882;28;20214;-64
2023/11/09 07:49:18;;;;;;;15.70;10.23;;;4.70;99.90;;;;;;5030517;28;20203;-64
2023/11/09 07:51:45;;;;;;;15.32;11.07;;;4.80;99.90;;;;;;5030796;28;20211;-64
2023/11/09 07:54:12;;;;;;;8.15;7.32;;;4.80;99.90;;;;;;5037463;28;20322;-64
2023/11/09 07:56:39;;;;;;;8.50;7.80;;;4.90;99.90;;;;;;5031314;28;20207;-64
2023/11/09 07:59:06;;;;;;;10.98;10.10;;;5.00;99.90;;;;;;5031325;28;20314;-64
2023/11/09 08:01:34;;;;;;;10.88;9.77;;;5.10;99.90;;;;;;5031627;28;20294;-65
2023/11/09 08:04:00;;;;;;;10.10;8.63;;;5.10;99.90;;;;;;5031368;28;20227;-64
2023/11/09 08:06:29;;;;;;;9.18;8.35;;;5.20;99.90;;;;;;5031126;28;20696;-64
2023/11/09 08:08:55;;;;;;;8.85;7.82;;;5.30;99.90;;;;;;5048149;28;20206;-64
2023/11/09 08:11:23;;;;;;;11.63;7.03;;;5.40;99.90;;;;;;5051415;28;20293;-64
2023/11/09 08:13:50;;;;;;;8.45;7.60;;;5.50;99.90;;;;;;5051080;28;20234;-64
2023/11/09 08:16:17;;;;;;;6.82;6.35;;;5.60;99.90;;;;;;5050986;28;20206;-64
2023/11/09 08:18:44;;;;;;;6.63;6.03;;;5.70;99.90;;;;;;5051167;28;20234;-65
2023/11/09 08:21:11;;;;;;;5.57;5.18;;;5.70;99.90;;;;;;5046743;28;20203;-64
2023/11/09 08:23:41;;;;;;;6.50;6.00;;;5.80;99.90;;;;;;5039961;28;20728;-64
2023/11/09 08:26:10;;;;;;;6.55;5.95;;;5.90;99.90;;;;;;5032836;28;20299;-65
2023/11/09 08:28:37;;;;;;;7.10;6.20;;;5.90;99.90;;;;;;5040512;28;20290;-64
2023/11/09 08:31:08;;;;;;;5.40;4.90;;;6.00;99.90;;;;;;5032978;28;20198;-64
2023/11/09 08:33:35;;;;;;;6.10;5.50;;;6.10;99.90;;;;;;5030787;28;20651;-65
2023/11/09 08:36:04;;;;;;;4.35;3.95;;;6.20;99.90;;;;;;5029855;28;20213;-64
2023/11/09 08:38:33;;;;;;;4.88;3.25;;;6.30;99.90;;;;;;5029973;28;20223;-65
2023/11/09 08:41:02;;;;;;;4.05;3.67;;;6.40;99.90;;;;;;5035219;28;20237;-65
2023/11/09 08:43:29;;;;;;;8.70;8.00;;;6.40;99.90;;;;;;5042400;28;20234;-64
2023/11/09 08:45:57;;;;;;;6.72;5.82;;;6.50;99.90;;;;;;5042647;28;20562;-65
2023/11/09 08:48:25;;;;;;;5.85;5.45;;;6.60;99.90;;;;;;5031009;28;21352;-65
2023/11/09 08:50:55;;;;;;;5.85;5.35;;;6.70;99.90;;;;;;5030363;28;20214;-64
2023/11/09 08:53:22;;;;;;;7.60;4.90;;;6.80;99.90;;;;;;5032439;28;20917;-65
2023/11/09 08:55:50;;;;;;;7.50;3.65;;;6.90;99.90;;;;;;5030320;28;20298;-65
2023/11/09 08:58:18;;;;;;;7.10;3.83;;;7.00;99.90;;;;;;5029783;28;20237;-65
2023/11/09 09:00:45;;;;;;;4.88;3.75;;;7.10;99.90;;;;;;5038919;28;20215;-65
2023/11/09 09:03:12;;;;;;;4.38;4.07;;;7.20;99.90;;;;;;5041404;28;20317;-65
2023/11/09 09:05:41;;;;;;;4.65;4.25;;;7.40;99.90;;;;;;5033610;28;20213;-65
2023/11/09 09:08:08;;;;;;;5.03;4.63;;;7.50;99.90;;;;;;5033418;28;20297;-65
2023/11/09 09:10:37;;;;;;;4.25;3.80;;;7.60;99.90;;;;;;5038751;28;20251;-65
2023/11/09 09:13:04;;;;;;;2.75;2.55;;;7.70;99.90;;;;;;5036242;28;20219;-65
2023/11/09 09:15:32;;;;;;;2.25;2.08;;;7.80;99.90;;;;;;5046989;28;20329;-65
2023/11/09 09:18:00;;;;;;;1.55;1.45;;;7.90;99.90;;;;;;5038898;28;20206;-65
2023/11/09 09:20:27;;;;;;;2.67;2.40;;;8.00;99.90;;;;;;5052858;28;20205;-65
2023/11/09 09:22:56;;;;;;;4.00;2.03;;;8.00;99.90;;;;;;5035613;28;20211;-64
2023/11/09 09:25:24;;;;;;;5.00;1.77;;;8.10;99.90;;;;;;5048349;28;20240;-64
2023/11/09 09:27:52;;;;;;;1.83;1.73;;;8.10;99.90;;;;;;5037389;28;20202;-64
2023/11/09 09:30:21;;;;;;;4.43;2.20;;;8.20;99.90;;;;;;5044956;28;20233;-64
2023/11/09 09:32:51;;;;;;;2.08;1.90;;;8.20;99.90;;;;;;5033031;28;20269;-64
2023/11/09 09:35:20;;;;;;;1.73;1.63;;;8.20;99.90;;;;;;5053135;28;20567;-64
2023/11/09 09:37:48;;;;;;;1.98;1.88;;;8.20;99.90;;;;;;5038751;28;20203;-64
2023/11/09 09:40:19;;;;;;;1.95;1.75;;;8.20;99.90;;;;;;5039733;28;20229;-64
2023/11/09 09:42:49;;;;;;;8.98;4.88;;;8.20;99.90;;;;;;5035414;28;20213;-65
2023/11/09 09:45:18;;;;;;;9.90;7.50;;;8.20;99.90;;;;;;5040734;28;20592;-65
2023/11/09 09:47:48;;;;;;;8.30;6.68;;;8.20;99.90;;;;;;5038668;28;20238;-64
2023/11/09 09:50:16;;;;;;;2.75;2.55;;;8.30;99.90;;;;;;5033163;28;20231;-64
2023/11/09 09:52:46;;;;;;;2.20;2.03;;;8.30;99.90;;;;;;5036897;28;20254;-64
2023/11/09 09:55:15;;;;;;;3.25;2.83;;;8.40;99.90;;;;;;5049692;28;20229;-65
2023/11/09 09:57:42;;;;;;;2.65;2.45;;;8.40;99.90;;;;;;5046118;28;20210;-64
2023/11/09 10:00:12;;;;;;;2.27;2.17;;;8.40;99.90;;;;;;5044836;28;20246;-64
2023/11/09 10:02:41;;;;;;;2.05;1.95;;;8.50;99.90;;;;;;5033387;28;20458;-64
2023/11/09 10:05:12;;;;;;;2.40;2.30;;;8.50;99.90;;;;;;5034096;28;20289;-64
2023/11/09 10:08:12;;;;;;;2.53;2.33;;;8.60;99.90;;;;;;5039823;28;20276;-63
2023/11/09 10:10:44;;;;;;;6.73;4.03;;;8.60;99.90;;;;;;5032944;28;20202;-64
2023/11/09 10:13:13;;;;;;;4.73;3.00;;;8.60;99.90;;;;;;5041613;28;20563;-64
2023/11/09 10:15:41;;;;;;;3.10;2.90;;;8.60;99.90;;;;;;5047976;28;20535;-64
2023/11/09 10:18:11;;;;;;;3.95;2.20;;;8.60;99.90;;;;;;5031859;28;21019;-64
2023/11/09 10:20:38;;;;;;;3.30;3.10;;;8.60;99.90;;;;;;5039540;28;20241;-64
2023/11/09 10:23:06;;;;;;;2.58;2.47;;;8.60;99.90;;;;;;5042683;28;20477;-64
2023/11/09 10:25:36;;;;;;;1.80;1.70;;;8.60;99.90;;;;;;5032235;28;20246;-64
2023/11/09 10:28:07;;;;;;;2.33;1.75;;;8.70;99.90;;;;;;5032176;28;20289;-64
2023/11/09 10:30:37;;;;;;;3.10;2.07;;;8.70;99.90;;;;;;5034650;28;20215;-64
2023/11/09 10:33:07;;;;;;;2.30;1.80;;;8.80;99.90;;;;;;5036303;28;20485;-64
2023/11/09 10:35:34;;;;;;;1.70;1.60;;;8.80;99.90;;;;;;5031868;28;20465;-64
2023/11/09 10:38:02;;;;;;;2.55;1.67;;;8.90;99.90;;;;;;5035148;28;20453;-64
2023/11/09 10:40:30;;;;;;;1.93;1.83;;;8.90;99.90;;;;;;5032038;28;20724;-65
2023/11/09 10:43:00;;;;;;;2.50;2.10;;;9.00;99.90;;;;;;5031687;28;20954;-64
2023/11/09 10:45:30;;;;;;;3.20;2.90;;;9.10;99.90;;;;;;5033895;28;20218;-64
2023/11/09 10:47:59;;;;;;;2.40;2.30;;;9.10;99.90;;;;;;5043356;28;20442;-64
2023/11/09 10:50:28;;;;;;;3.63;2.57;;;9.10;99.90;;;;;;5031376;28;20457;-64
2023/11/09 10:52:57;;;;;;;2.43;2.23;;;9.10;99.90;;;;;;5030843;28;20452;-64
2023/11/09 10:55:25;;;;;;;1.60;1.53;;;9.20;99.90;;;;;;5031161;28;20503;-65
2023/11/09 10:57:54;;;;;;;3.97;2.67;;;9.20;99.90;;;;;;5033885;28;20810;-64
2023/11/09 11:00:31;;;;;;;1.48;1.48;;;9.20;99.90;;;;;;5031454;28;21124;-65
2023/11/09 11:03:08;;;;;;;2.47;2.30;;;9.30;99.90;;;;;;5035293;28;20294;-65
2023/11/09 11:05:40;;;;;;;2.37;2.17;;;9.30;99.90;;;;;;5038347;28;20446;-65
2023/11/09 11:08:13;;;;;;;4.63;1.87;;;9.30;99.90;;;;;;5044527;28;20499;-64
2023/11/09 11:10:47;;;;;;;2.23;1.20;;;9.40;99.90;;;;;;5047855;28;20448;-65
2023/11/09 11:13:17;;;;;;;2.43;2.00;;;9.40;99.90;;;;;;5038697;28;20823;-65
2023/11/09 11:16:09;;;;;;;4.23;2.10;;;9.50;99.90;;;;;;5042415;28;20429;-65
2023/11/09 11:18:56;;;;;;;1.73;1.60;;;9.50;99.90;;;;;;5033045;28;20458;-65
2023/11/09 11:21:41;;;;;;;2.00;1.90;;;9.60;99.90;;;;;;5039837;28;20538;-65
2023/11/09 11:24:33;;;;;;;1.87;1.77;;;9.60;99.90;;;;;;5051359;28;20543;-65
2023/11/09 11:27:07;;;;;;;1.60;1.50;;;9.60;99.90;;;;;;5035546;28;20526;-65
2023/11/09 11:29:37;;;;;;;2.93;1.63;;;9.70;99.90;;;;;;5046595;28;20436;-65
2023/11/09 11:32:08;;;;;;;2.27;1.73;;;9.70;99.90;;;;;;5045064;28;20915;-64
2023/11/09 11:34:54;;;;;;;6.07;3.37;;;9.80;99.90;;;;;;5050006;28;20485;-64
2023/11/09 11:37:26;;;;;;;2.10;1.90;;;9.90;99.90;;;;;;5047065;28;20445;-65
2023/11/09 11:39:54;;;;;;;2.27;2.17;;;10.00;99.90;;;;;;5038115;28;20566;-64
2023/11/09 11:42:25;;;;;;;1.50;1.40;;;10.00;99.90;;;;;;5046462;28;20449;-64
2023/11/09 11:44:54;;;;;;;1.63;1.53;;;10.10;99.90;;;;;;5035027;28;20515;-65
2023/11/09 11:47:22;;;;;;;1.40;1.30;;;10.10;99.90;;;;;;5041901;28;21074;-65
2023/11/09 11:49:51;;;;;;;1.43;1.33;;;10.10;99.90;;;;;;5042848;28;20202;-65
2023/11/09 11:52:23;;;;;;;1.80;1.67;;;10.10;99.90;;;;;;5034603;28;20441;-65
2023/11/09 11:54:51;;;;;;;1.73;1.67;;;10.20;99.90;;;;;;5034725;28;20995;-65
2023/11/09 11:57:19;;;;;;;1.53;1.20;;;10.20;99.90;;;;;;5041937;28;20532;-65
2023/11/09 12:00:03;;;;;;;2.50;1.60;;;10.20;99.90;;;;;;5037099;28;20478;-65
2023/11/09 12:02:30;;;;;;;1.27;1.17;;;10.20;99.90;;;;;;5048672;28;20448;-65
2023/11/09 12:04:58;;;;;;;2.80;1.73;;;10.30;99.90;;;;;;5040304;28;20477;-65
2023/11/09 12:07:29;;;;;;;1.93;1.80;;;10.30;99.90;;;;;;5041503;28;20442;-65
2023/11/09 12:09:57;;;;;;;1.63;1.50;;;10.30;99.90;;;;;;5045241;28;20579;-65
2023/11/09 12:12:26;;;;;;;1.47;1.33;;;10.40;99.90;;;;;;5036069;28;20481;-65
2023/11/09 12:14:54;;;;;;;1.70;1.60;;;10.40;99.90;;;;;;5047006;28;20478;-65
2023/11/09 12:17:23;;;;;;;3.30;1.60;;;10.40;99.90;;;;;;5048462;28;20458;-65
2023/11/09 12:19:51;;;;;;;5.60;4.33;;;10.40;99.90;;;;;;5047379;28;20499;-65
2023/11/09 12:22:19;;;;;;;2.50;1.90;;;10.50;99.90;;;;;;5049223;28;20511;-65
2023/11/09 12:24:46;;;;;;;2.03;1.50;;;10.50;99.90;;;;;;5039935;28;21108;-65
2023/11/09 12:27:13;;;;;;;1.40;1.30;;;10.50;99.90;;;;;;5037720;28;20471;-65
2023/11/09 12:29:42;;;;;;;8.00;3.80;;;10.50;99.90;;;;;;5038991;28;20462;-65
2023/11/09 12:32:09;;;;;;;7.23;3.43;;;10.50;99.90;;;;;;5045543;28;20451;-65
2023/11/09 12:34:41;;;;;;;2.00;1.70;;;10.50;99.90;;;;;;5034293;28;20477;-65
2023/11/09 12:37:12;;;;;;;1.73;1.63;;;10.60;99.90;;;;;;5038526;28;20931;-65
2023/11/09 12:39:42;;;;;;;1.37;1.27;;;10.60;99.90;;;;;;5050492;28;20484;-65
2023/11/09 12:42:12;;;;;;;1.73;1.63;;;10.60;99.90;;;;;;5040043;28;20437;-65
2023/11/09 12:44:42;;;;;;;1.70;1.60;;;10.60;99.90;;;;;;5045932;28;20484;-65
2023/11/09 12:47:15;;;;;;;1.57;1.47;;;10.60;99.90;;;;;;5053860;28;20491;-65
2023/11/09 12:49:44;;;;;;;1.80;1.70;;;10.70;99.90;;;;;;5051180;28;20456;-65
2023/11/09 12:52:11;;;;;;;1.57;1.20;;;10.60;99.90;;;;;;5048916;28;20448;-65
2023/11/09 12:54:40;;;;;;;1.70;1.50;;;10.70;99.90;;;;;;5047671;28;20496;-65
2023/11/09 12:57:11;;;;;;;2.40;1.93;;;10.70;99.90;;;;;;5051449;28;20453;-65
2023/11/09 12:59:41;;;;;;;2.87;1.70;;;10.80;99.90;;;;;;5051744;28;20480;-65
2023/11/09 13:02:14;;;;;;;1.00;1.00;;;10.80;99.90;;;;;;5052696;28;20502;-65
2023/11/09 13:04:42;;;;;;;2.60;1.43;;;10.90;99.90;;;;;;5044799;28;21142;-65
2023/11/09 13:07:11;;;;;;;1.90;1.70;;;10.90;99.90;;;;;;5045117;28;20453;-65